createdAt,value
2023-05-15T00:01:54.106Z,13.47
2023-05-15T00:04:41.239Z,13.44
2023-05-15T00:07:27.830Z,13.40
2023-05-15T00:10:14.038Z,13.39
2023-05-15T00:13:00.657Z,13.38
2023-05-15T00:15:47.080Z,13.37
2023-05-15T00:18:34.006Z,13.35
2023-05-15T00:21:20.754Z,13.32
2023-05-15T00:24:07.042Z,13.31
2023-05-15T00:26:53.685Z,13.31
2023-05-15T00:29:39.779Z,13.31
2023-05-15T00:32:26.414Z,13.31
2023-05-15T00:35:13.032Z,13.32
2023-05-15T00:37:59.579Z,13.32
2023-05-15T00:40:46.692Z,13.34
2023-05-15T00:43:34.870Z,13.32
2023-05-15T00:46:22.275Z,13.29
2023-05-15T00:49:13.523Z,13.25
2023-05-15T00:52:03.864Z,13.26
2023-05-15T00:54:50.191Z,13.28
2023-05-15T00:57:38.231Z,13.30
2023-05-15T01:00:25.161Z,13.33
2023-05-15T01:03:12.042Z,13.36
2023-05-15T01:05:58.612Z,13.39
2023-05-15T01:08:47.943Z,13.42
2023-05-15T01:11:37.911Z,13.45
2023-05-15T01:14:24.675Z,13.48
2023-05-15T01:17:11.123Z,13.50
2023-05-15T01:19:59.002Z,13.50
2023-05-15T01:23:11.435Z,13.53
2023-05-15T01:26:28.520Z,13.57
2023-05-15T01:29:16.681Z,13.61
2023-05-15T01:32:07.369Z,13.64
2023-05-15T01:35:12.372Z,13.66
2023-05-15T01:38:30.677Z,13.65
2023-05-15T01:41:26.911Z,13.62
2023-05-15T01:44:22.356Z,13.63
2023-05-15T01:47:13.967Z,13.62
2023-05-15T01:50:02.677Z,13.63
2023-05-15T01:52:56.516Z,13.65
2023-05-15T01:55:48.692Z,13.69
2023-05-15T01:58:38.503Z,13.69
2023-05-15T02:01:28.040Z,13.69
2023-05-15T02:04:15.294Z,13.70
2023-05-15T02:07:04.173Z,13.74
2023-05-15T02:09:54.739Z,13.77
2023-05-15T02:12:42.457Z,13.79
2023-05-15T02:15:30.116Z,13.78
2023-05-15T02:18:16.690Z,13.76
2023-05-15T02:21:03.520Z,13.77
2023-05-15T02:23:49.709Z,13.76
2023-05-15T02:26:46.858Z,13.74
2023-05-15T02:29:42.391Z,13.74
2023-05-15T02:32:38.547Z,13.75
2023-05-15T02:35:33.569Z,13.76
2023-05-15T02:38:24.764Z,13.77
2023-05-15T02:41:14.156Z,13.78
2023-05-15T02:44:02.728Z,13.79
2023-05-15T02:46:52.549Z,14.32
2023-05-15T02:49:39.801Z,16.37
2023-05-15T02:52:26.423Z,17.35
2023-05-15T02:55:13.127Z,16.65
2023-05-15T02:57:59.859Z,15.97
2023-05-15T03:00:46.486Z,15.55
2023-05-15T03:03:33.162Z,15.26
2023-05-15T03:06:19.823Z,15.04
2023-05-15T03:09:06.226Z,14.83
2023-05-15T03:11:52.644Z,14.66
2023-05-15T03:14:39.213Z,14.51
2023-05-15T03:17:25.663Z,14.37
2023-05-15T03:20:12.431Z,14.22
2023-05-15T03:22:58.901Z,14.12
2023-05-15T03:25:45.418Z,14.02
2023-05-15T03:28:32.058Z,13.92
2023-05-15T03:31:18.859Z,13.85
2023-05-15T03:34:05.424Z,13.82
2023-05-15T03:36:52.063Z,13.81
2023-05-15T03:39:38.608Z,13.81
2023-05-15T03:42:25.676Z,13.81
2023-05-15T03:45:12.572Z,13.80
2023-05-15T03:47:59.084Z,13.79
2023-05-15T03:50:46.936Z,13.81
2023-05-15T03:53:33.679Z,13.84
2023-05-15T03:56:20.196Z,13.87
2023-05-15T03:59:07.409Z,13.90
2023-05-15T04:02:04.058Z,13.94
2023-05-15T04:04:51.731Z,13.95
2023-05-15T04:07:38.662Z,13.96
2023-05-15T04:10:25.266Z,13.96
2023-05-15T04:13:11.911Z,13.94
2023-05-15T04:15:59.976Z,13.93
2023-05-15T04:18:46.642Z,13.95
2023-05-15T04:21:33.142Z,13.97
2023-05-15T04:24:19.799Z,13.99
2023-05-15T04:27:07.021Z,14.02
2023-05-15T04:29:53.594Z,14.05
2023-05-15T04:32:40.506Z,14.07
2023-05-15T04:35:27.877Z,14.08
2023-05-15T04:38:14.434Z,14.09
2023-05-15T04:41:01.281Z,14.10
2023-05-15T04:43:47.986Z,14.11
2023-05-15T04:46:37.357Z,14.12
2023-05-15T04:49:24.127Z,14.13
2023-05-15T04:52:11.143Z,14.15
2023-05-15T04:54:58.165Z,14.15
2023-05-15T04:57:46.857Z,14.15
2023-05-15T05:00:33.529Z,14.17
2023-05-15T05:03:20.249Z,14.18
2023-05-15T05:06:06.724Z,14.18
2023-05-15T05:08:52.952Z,14.20
2023-05-15T05:11:43.639Z,14.24
2023-05-15T05:14:31.544Z,14.25
2023-05-15T05:17:17.811Z,14.28
2023-05-15T05:20:05.027Z,14.32
2023-05-15T05:22:51.445Z,14.32
2023-05-15T05:25:37.604Z,14.33
2023-05-15T05:28:24.043Z,14.35
2023-05-15T05:31:11.020Z,14.40
2023-05-15T05:33:57.614Z,14.43
2023-05-15T05:36:44.212Z,14.47
2023-05-15T05:39:30.579Z,14.48
2023-05-15T05:42:17.071Z,14.49
2023-05-15T05:45:04.305Z,14.51
2023-05-15T05:47:50.670Z,15.01
2023-05-15T05:50:37.107Z,17.02
2023-05-15T05:53:23.560Z,18.55
2023-05-15T05:56:10.421Z,19.02
2023-05-15T05:58:56.878Z,18.16
2023-05-15T06:01:43.412Z,17.41
2023-05-15T06:04:30.030Z,16.94
2023-05-15T06:07:16.647Z,16.61
2023-05-15T06:10:03.067Z,16.36
2023-05-15T06:12:49.534Z,16.18
2023-05-15T06:15:36.185Z,16.05
2023-05-15T06:18:22.975Z,15.95
2023-05-15T06:21:09.309Z,15.89
2023-05-15T06:23:56.110Z,15.83
2023-05-15T06:26:42.630Z,15.76
2023-05-15T06:29:28.910Z,15.69
2023-05-15T06:32:15.523Z,15.64
2023-05-15T06:35:02.650Z,15.60
2023-05-15T06:37:50.378Z,15.58
2023-05-15T06:40:37.046Z,15.53
2023-05-15T06:43:23.573Z,15.98
2023-05-15T06:46:09.981Z,17.87
2023-05-15T06:48:56.309Z,18.87
2023-05-15T06:51:42.701Z,18.19
2023-05-15T06:54:29.118Z,17.52
2023-05-15T06:57:15.588Z,17.12
2023-05-15T07:00:02.140Z,16.85
2023-05-15T07:02:48.939Z,16.62
2023-05-15T07:05:35.637Z,16.42
2023-05-15T07:08:22.289Z,16.27
2023-05-15T07:11:08.976Z,16.16
2023-05-15T07:13:55.458Z,16.56
2023-05-15T07:16:41.769Z,18.40
2023-05-15T07:19:28.504Z,19.56
2023-05-15T07:22:21.358Z,19.02
2023-05-15T07:25:08.256Z,18.24
2023-05-15T07:27:55.024Z,17.72
2023-05-15T07:30:41.964Z,17.39
2023-05-15T07:33:28.392Z,17.16
2023-05-15T07:36:14.985Z,16.96
2023-05-15T07:39:01.543Z,16.80
2023-05-15T07:41:48.114Z,17.15
2023-05-15T07:44:34.272Z,18.97
2023-05-15T07:47:21.167Z,19.92
2023-05-15T07:50:07.788Z,19.37
2023-05-15T07:52:54.511Z,18.79
2023-05-15T07:55:41.627Z,18.46
2023-05-15T07:58:28.839Z,18.23
2023-05-15T08:01:15.992Z,18.10
2023-05-15T08:04:03.686Z,18.01
2023-05-15T08:06:50.563Z,17.92
2023-05-15T08:09:37.124Z,17.85
2023-05-15T08:12:23.760Z,17.77
2023-05-15T08:15:10.574Z,18.15
2023-05-15T08:17:57.193Z,19.94
2023-05-15T08:20:43.673Z,20.72
2023-05-15T08:23:30.023Z,19.99
2023-05-15T08:26:16.459Z,19.33
2023-05-15T08:29:03.556Z,18.85
2023-05-15T08:31:50.262Z,18.47
2023-05-15T08:34:36.982Z,18.17
2023-05-15T08:37:23.376Z,17.93
2023-05-15T08:40:10.416Z,17.79
2023-05-15T08:43:03.294Z,17.69
2023-05-15T08:45:50.367Z,17.55
2023-05-15T08:48:41.438Z,17.39
2023-05-15T08:51:27.841Z,17.22
2023-05-15T08:54:15.606Z,18.17
2023-05-15T08:57:02.772Z,19.91
2023-05-15T08:59:51.244Z,20.34
2023-05-15T09:02:39.309Z,19.56
2023-05-15T09:05:27.013Z,18.95
2023-05-15T09:08:15.853Z,18.53
2023-05-15T09:11:04.393Z,18.18
2023-05-15T09:13:50.735Z,17.94
2023-05-15T09:16:38.369Z,17.85
2023-05-15T09:19:24.804Z,17.85
2023-05-15T09:22:23.350Z,17.83
2023-05-15T09:25:10.044Z,17.79
2023-05-15T09:27:56.622Z,17.81
2023-05-15T09:30:43.402Z,17.80
2023-05-15T09:33:34.128Z,17.82
2023-05-15T09:36:22.131Z,17.78
2023-05-15T09:39:09.058Z,17.68
2023-05-15T09:42:09.946Z,17.49
2023-05-15T09:44:56.188Z,17.24
2023-05-15T09:47:43.205Z,17.06
2023-05-15T09:50:37.569Z,17.53
2023-05-15T09:53:24.821Z,19.21
2023-05-15T09:56:11.150Z,19.22
2023-05-15T09:58:59.586Z,18.37
2023-05-15T10:01:46.565Z,17.69
2023-05-15T10:04:36.784Z,17.23
2023-05-15T10:07:36.449Z,16.99
2023-05-15T10:10:23.970Z,18.28
2023-05-15T10:13:11.411Z,19.63
2023-05-15T10:15:59.249Z,19.17
2023-05-15T10:18:47.463Z,18.44
2023-05-15T10:21:36.513Z,17.98
2023-05-15T10:24:25.673Z,17.70
2023-05-15T10:27:13.653Z,18.00
2023-05-15T10:30:01.148Z,19.76
2023-05-15T10:32:49.141Z,20.53
2023-05-15T10:35:36.411Z,19.81
2023-05-15T10:38:24.967Z,19.03
2023-05-15T10:41:17.749Z,18.43
2023-05-15T10:44:05.196Z,17.97
2023-05-15T10:46:52.877Z,18.22
2023-05-15T10:49:39.654Z,19.93
2023-05-15T10:52:26.258Z,20.47
2023-05-15T10:55:16.582Z,19.60
2023-05-15T10:58:11.843Z,18.78
2023-05-15T11:00:58.169Z,18.14
2023-05-15T11:03:49.234Z,18.23
2023-05-15T11:06:39.115Z,19.69
2023-05-15T11:09:36.981Z,19.70
2023-05-15T11:12:24.673Z,18.71
2023-05-15T11:15:12.322Z,17.95
2023-05-15T11:18:03.913Z,17.83
2023-05-15T11:20:50.712Z,19.30
2023-05-15T11:23:42.192Z,19.63
2023-05-15T11:26:34.425Z,18.66
2023-05-15T11:29:21.291Z,17.83
2023-05-15T11:32:40.669Z,17.79
2023-05-15T11:35:30.595Z,19.50
2023-05-15T11:38:20.266Z,20.07
2023-05-15T11:41:19.215Z,19.09
2023-05-15T11:44:05.777Z,18.12
2023-05-15T11:46:53.182Z,17.53
2023-05-15T11:49:40.233Z,18.33
2023-05-15T11:52:28.433Z,19.68
2023-05-15T11:55:19.430Z,20.00
2023-05-15T11:58:12.513Z,18.96
2023-05-15T12:00:59.109Z,17.93
2023-05-15T12:03:48.994Z,17.74
2023-05-15T12:06:35.795Z,18.99
2023-05-15T12:09:27.720Z,19.21
2023-05-15T12:12:14.784Z,18.30
2023-05-15T12:15:01.937Z,17.56
2023-05-15T12:17:48.487Z,17.62
2023-05-15T12:20:36.311Z,19.11
2023-05-15T12:23:24.285Z,19.81
2023-05-15T12:26:11.019Z,19.01
2023-05-15T12:28:57.312Z,18.14
2023-05-15T12:31:44.376Z,18.06
2023-05-15T12:34:31.254Z,19.49
2023-05-15T12:37:23.129Z,20.56
2023-05-15T12:40:12.056Z,20.81
2023-05-15T12:42:58.577Z,19.74
2023-05-15T12:45:45.082Z,18.76
2023-05-15T12:48:32.889Z,18.11
2023-05-15T12:51:22.567Z,18.24
2023-05-15T12:54:18.085Z,19.79
2023-05-15T12:57:04.563Z,20.88
2023-05-15T12:59:51.232Z,21.12
2023-05-15T13:02:37.881Z,20.18
2023-05-15T13:05:26.068Z,19.28
2023-05-15T13:08:21.771Z,18.61
2023-05-15T13:11:13.906Z,18.65
2023-05-15T13:14:00.624Z,20.14
2023-05-15T13:16:47.087Z,20.72
2023-05-15T13:19:33.567Z,19.79
2023-05-15T13:22:20.052Z,18.87
2023-05-15T13:25:06.949Z,18.17
2023-05-15T13:27:55.615Z,18.27
2023-05-15T13:30:42.572Z,19.77
2023-05-15T13:33:29.439Z,20.77
2023-05-15T13:36:15.981Z,20.45
2023-05-15T13:39:02.194Z,19.50
2023-05-15T13:41:48.740Z,18.74
2023-05-15T13:44:37.527Z,18.68
2023-05-15T13:47:23.698Z,20.16
2023-05-15T13:50:12.782Z,21.20
2023-05-15T13:52:59.065Z,21.01
2023-05-15T13:55:46.954Z,19.89
2023-05-15T13:58:33.360Z,18.93
2023-05-15T14:01:20.092Z,18.20
2023-05-15T14:04:06.729Z,18.29
2023-05-15T14:06:53.276Z,19.75
2023-05-15T14:09:39.892Z,20.73
2023-05-15T14:12:26.620Z,20.93
2023-05-15T14:15:13.179Z,19.91
2023-05-15T14:17:59.885Z,18.94
2023-05-15T14:20:46.246Z,18.24
2023-05-15T14:23:32.415Z,18.33
2023-05-15T14:26:19.210Z,19.82
2023-05-15T14:29:05.883Z,20.80
2023-05-15T14:31:52.642Z,21.03
2023-05-15T14:34:39.010Z,20.04
2023-05-15T14:37:27.351Z,19.12
2023-05-15T14:40:13.843Z,18.39
2023-05-15T14:43:00.350Z,18.42
2023-05-15T14:45:46.644Z,19.89
2023-05-15T14:48:33.998Z,20.90
2023-05-15T14:51:20.690Z,21.08
2023-05-15T14:54:07.438Z,20.04
2023-05-15T14:56:55.131Z,19.07
2023-05-15T14:59:42.840Z,18.33
2023-05-15T15:02:29.544Z,18.36
2023-05-15T15:05:16.137Z,19.88
2023-05-15T15:08:05.818Z,20.97
2023-05-15T15:10:52.464Z,21.19
2023-05-15T15:13:38.859Z,20.19
2023-05-15T15:16:25.048Z,19.30
2023-05-15T15:19:11.935Z,18.65
2023-05-15T15:21:58.604Z,18.70
2023-05-15T15:24:45.088Z,20.20
2023-05-15T15:27:32.928Z,21.22
2023-05-15T15:30:19.619Z,21.45
2023-05-15T15:33:05.971Z,20.43
2023-05-15T15:35:52.793Z,19.51
2023-05-15T15:38:43.613Z,18.90
2023-05-15T15:41:30.625Z,19.00
2023-05-15T15:44:17.084Z,20.48
2023-05-15T15:47:03.792Z,21.47
2023-05-15T15:49:51.480Z,21.55
2023-05-15T15:52:37.722Z,20.55
2023-05-15T15:55:23.958Z,19.67
2023-05-15T15:58:10.462Z,19.05
2023-05-15T16:00:57.964Z,19.08
2023-05-15T16:03:44.312Z,20.57
2023-05-15T16:06:32.472Z,21.56
2023-05-15T16:09:19.962Z,21.39
2023-05-15T16:12:06.639Z,20.26
2023-05-15T16:14:54.724Z,19.31
2023-05-15T16:17:41.290Z,18.61
2023-05-15T16:20:28.215Z,18.69
2023-05-15T16:23:16.451Z,20.15
2023-05-15T16:26:04.506Z,21.07
2023-05-15T16:28:50.916Z,21.19
2023-05-15T16:31:38.395Z,20.15
2023-05-15T16:34:25.273Z,19.18
2023-05-15T16:37:11.687Z,18.48
2023-05-15T16:39:57.913Z,18.53
2023-05-15T16:42:44.411Z,20.03
2023-05-15T16:45:31.036Z,21.05
2023-05-15T16:48:17.599Z,21.18
2023-05-15T16:51:04.433Z,20.16
2023-05-15T16:53:50.962Z,19.23
2023-05-15T16:56:37.362Z,18.98
2023-05-15T16:59:24.137Z,20.23
2023-05-15T17:02:10.794Z,21.16
2023-05-15T17:04:57.511Z,21.31
2023-05-15T17:07:44.717Z,20.28
2023-05-15T17:10:31.192Z,19.32
2023-05-15T17:13:17.705Z,18.63
2023-05-15T17:16:04.533Z,18.65
2023-05-15T17:18:51.609Z,20.05
2023-05-15T17:21:38.502Z,21.10
2023-05-15T17:24:25.035Z,21.31
2023-05-15T17:27:12.290Z,20.26
2023-05-15T17:29:58.427Z,19.29
2023-05-15T17:32:44.931Z,18.59
2023-05-15T17:35:33.026Z,19.01
2023-05-15T17:38:19.910Z,20.40
2023-05-15T17:41:07.593Z,21.23
2023-05-15T17:43:54.345Z,21.31
2023-05-15T17:46:40.776Z,20.21
2023-05-15T17:49:27.309Z,19.24
2023-05-15T17:52:13.610Z,18.51
2023-05-15T17:55:00.187Z,18.55
2023-05-15T17:57:47.971Z,20.01
2023-05-15T18:00:35.723Z,20.98
2023-05-15T18:03:22.075Z,21.43
2023-05-15T18:06:09.120Z,21.18
2023-05-15T18:08:55.613Z,19.98
2023-05-15T18:11:42.294Z,19.00
2023-05-15T18:14:28.713Z,18.78
2023-05-15T18:17:16.337Z,20.09
2023-05-15T18:20:05.716Z,20.99
2023-05-15T18:22:52.439Z,21.12
2023-05-15T18:25:39.075Z,20.02
2023-05-15T18:28:25.565Z,19.07
2023-05-15T18:31:11.987Z,18.89
2023-05-15T18:34:01.215Z,20.19
2023-05-15T18:36:49.609Z,21.09
2023-05-15T18:39:37.629Z,21.59
2023-05-15T18:42:25.475Z,21.33
2023-05-15T18:45:13.139Z,20.12
2023-05-15T18:47:59.704Z,19.12
2023-05-15T18:50:46.277Z,18.90
2023-05-15T18:53:32.773Z,20.31
2023-05-15T18:56:19.107Z,21.00
2023-05-15T18:59:05.583Z,20.52
2023-05-15T19:01:53.983Z,19.18
2023-05-15T19:04:40.527Z,18.72
2023-05-15T19:07:30.962Z,19.84
2023-05-15T19:10:17.487Z,20.63
2023-05-15T19:13:03.783Z,21.04
2023-05-15T19:15:53.567Z,21.33
2023-05-15T19:18:40.513Z,21.19
2023-05-15T19:21:26.785Z,20.04
2023-05-15T19:24:13.475Z,19.05
2023-05-15T19:27:00.133Z,18.87
2023-05-15T19:29:46.681Z,20.14
2023-05-15T19:32:33.384Z,21.02
2023-05-15T19:35:20.069Z,21.47
2023-05-15T19:38:06.479Z,21.08
2023-05-15T19:40:53.175Z,19.89
2023-05-15T19:43:39.812Z,18.85
2023-05-15T19:46:26.297Z,18.92
2023-05-15T19:49:13.265Z,20.14
2023-05-15T19:51:59.746Z,20.85
2023-05-15T19:54:46.337Z,21.24
2023-05-15T19:57:33.039Z,21.56
2023-05-15T20:00:20.306Z,20.93
2023-05-15T20:03:06.994Z,19.61
2023-05-15T20:05:53.707Z,19.12
2023-05-15T20:08:40.424Z,20.40
2023-05-15T20:11:26.949Z,20.94
2023-05-15T20:14:14.216Z,20.21
2023-05-15T20:17:00.718Z,18.76
2023-05-15T20:19:49.486Z,19.21
2023-05-15T20:22:36.192Z,19.97
2023-05-15T20:25:24.243Z,20.19
2023-05-15T20:28:10.816Z,19.29
2023-05-15T20:30:57.842Z,18.30
2023-05-15T20:33:44.845Z,19.20
2023-05-15T20:36:32.513Z,19.98
2023-05-15T20:39:22.138Z,20.45
2023-05-15T20:42:08.923Z,19.41
2023-05-15T20:44:55.874Z,18.34
2023-05-15T20:47:42.880Z,19.19
2023-05-15T20:50:29.512Z,19.92
2023-05-15T20:53:16.546Z,20.24
2023-05-15T20:56:03.840Z,19.03
2023-05-15T20:58:50.152Z,18.54
2023-05-15T21:01:36.862Z,19.53
2023-05-15T21:04:23.608Z,20.09
2023-05-15T21:07:10.701Z,19.97
2023-05-15T21:09:57.781Z,18.55
2023-05-15T21:12:44.330Z,17.81
2023-05-15T21:15:31.038Z,18.97
2023-05-15T21:18:18.931Z,19.53
2023-05-15T21:21:08.817Z,19.90
2023-05-15T21:23:55.608Z,18.70
2023-05-15T21:26:42.230Z,17.83
2023-05-15T21:29:28.911Z,18.70
2023-05-15T21:32:15.720Z,19.26
2023-05-15T21:35:02.432Z,19.48
2023-05-15T21:37:48.900Z,18.44
2023-05-15T21:40:36.155Z,17.79
2023-05-15T21:43:22.526Z,18.75
2023-05-15T21:46:09.496Z,19.47
2023-05-15T21:48:56.004Z,19.36
2023-05-15T21:51:42.561Z,18.00
2023-05-15T21:54:29.078Z,17.93
2023-05-15T21:57:15.703Z,18.97
2023-05-15T22:00:03.327Z,19.59
2023-05-15T22:02:52.490Z,19.79
2023-05-15T22:05:39.316Z,18.73
2023-05-15T22:08:25.786Z,17.97
2023-05-15T22:11:12.281Z,18.85
2023-05-15T22:13:59.407Z,19.39
2023-05-15T22:16:45.721Z,19.69
2023-05-15T22:19:34.045Z,18.62
2023-05-15T22:22:21.092Z,17.85
2023-05-15T22:25:07.871Z,18.68
2023-05-15T22:27:54.398Z,19.45
2023-05-15T22:30:41.009Z,19.60
2023-05-15T22:33:27.871Z,18.53
2023-05-15T22:36:14.322Z,17.78
2023-05-15T22:39:00.705Z,18.63
2023-05-15T22:41:47.702Z,19.27
2023-05-15T22:44:34.156Z,18.90
2023-05-15T22:47:20.855Z,17.71
2023-05-15T22:50:08.034Z,18.19
2023-05-15T22:52:54.311Z,19.05
2023-05-15T22:55:41.711Z,19.61
2023-05-15T22:58:28.265Z,18.50
2023-05-15T23:01:14.819Z,17.61
2023-05-15T23:04:01.238Z,18.40
2023-05-15T23:06:47.481Z,19.39
2023-05-15T23:09:34.121Z,18.50
2023-05-15T23:12:21.177Z,17.67
2023-05-15T23:15:09.457Z,18.47
2023-05-15T23:17:55.666Z,19.13
2023-05-15T23:20:41.954Z,19.60
2023-05-15T23:23:28.390Z,18.24
2023-05-15T23:26:14.803Z,17.42
2023-05-15T23:29:00.983Z,18.33
2023-05-15T23:31:47.748Z,19.12
2023-05-15T23:34:34.297Z,19.44
2023-05-15T23:37:20.796Z,18.33
2023-05-15T23:40:08.009Z,17.63
2023-05-15T23:42:54.521Z,18.77
2023-05-15T23:45:41.025Z,19.28
2023-05-15T23:48:28.066Z,19.57
2023-05-15T23:51:14.398Z,18.85
2023-05-15T23:54:01.001Z,17.58
2023-05-15T23:56:47.745Z,18.07
2023-05-15T23:59:34.191Z,19.03
